createdAt,value
2023-02-08T00:01:00.473Z,5.23
2023-02-08T00:03:29.162Z,6.30
2023-02-08T00:05:57.145Z,6.03
2023-02-08T00:08:25.161Z,5.57
2023-02-08T00:10:53.081Z,5.83
2023-02-08T00:13:20.980Z,4.60
2023-02-08T00:15:49.079Z,5.00
2023-02-08T00:18:18.436Z,5.87
2023-02-08T00:20:47.280Z,3.57
2023-02-08T00:23:16.046Z,5.07
2023-02-08T00:25:44.197Z,4.60
2023-02-08T00:28:15.475Z,7.27
2023-02-08T00:30:44.446Z,5.20
2023-02-08T00:33:13.217Z,4.83
2023-02-08T00:35:42.636Z,3.77
2023-02-08T00:38:10.716Z,3.83
2023-02-08T00:40:39.108Z,4.63
2023-02-08T00:43:07.302Z,3.90
2023-02-08T00:45:35.348Z,3.20
2023-02-08T00:48:03.356Z,3.80
2023-02-08T00:50:31.774Z,3.00
2023-02-08T00:53:01.462Z,3.10
2023-02-08T00:55:29.393Z,3.53
2023-02-08T00:57:57.383Z,5.23
2023-02-08T01:00:25.344Z,4.70
2023-02-08T01:02:53.357Z,4.13
2023-02-08T01:05:21.366Z,3.43
2023-02-08T01:07:49.391Z,4.73
2023-02-08T01:10:18.814Z,3.43
2023-02-08T01:12:46.793Z,3.53
2023-02-08T01:15:14.727Z,3.37
2023-02-08T01:17:51.019Z,3.40
2023-02-08T01:20:19.253Z,3.50
2023-02-08T01:22:47.164Z,3.80
2023-02-08T01:25:15.946Z,3.30
2023-02-08T01:27:45.561Z,2.90
2023-02-08T01:30:21.473Z,3.13
2023-02-08T01:32:49.693Z,3.50
2023-02-08T01:35:17.815Z,2.33
2023-02-08T01:37:45.762Z,2.13
2023-02-08T01:40:14.105Z,2.87
2023-02-08T01:42:42.160Z,2.50
2023-02-08T01:45:30.842Z,3.60
2023-02-08T01:48:05.002Z,3.10
2023-02-08T01:50:37.582Z,2.47
2023-02-08T01:53:06.078Z,3.07
2023-02-08T01:55:37.725Z,3.10
2023-02-08T01:58:10.341Z,2.40
2023-02-08T02:00:39.844Z,2.83
2023-02-08T02:03:08.578Z,2.57
2023-02-08T02:05:42.043Z,2.60
2023-02-08T02:08:10.943Z,3.20
2023-02-08T02:10:40.993Z,2.67
2023-02-08T02:13:12.684Z,2.33
2023-02-08T02:15:43.336Z,2.50
2023-02-08T02:18:11.962Z,2.50
2023-02-08T02:21:00.586Z,3.50
2023-02-08T02:23:46.102Z,2.47
2023-02-08T02:26:37.728Z,2.93
2023-02-08T02:29:48.716Z,3.33
2023-02-08T02:32:33.302Z,2.37
2023-02-08T02:35:06.583Z,2.67
2023-02-08T02:37:49.527Z,2.80
